Latest Weather Observations for Forbes

IDN60801

Issued at 10:34 am EST Thursday 25 August 2016 (issued every 30 minutes, with the page automatically refreshed every 10 minutes)

About weather observations | Map of weather stations | Latest weather observations for NSW | Other Formats
Station Details ID: 065103 Name: FORBES AIRPORT AWS Lat: -33.36 Lon: 147.92 Height: 230.4 m
Data from the previous 72 hours. | See also: Recent months at Forbes
Date/Time
EST
Temp
°C
App
Temp
°C
Dew
Point
°C
Rel
Hum
%
Delta-T
°C
Wind Press
QNH
hPa
Press
MSL
hPa
Rain since
9am
mm
Dir  Spd
km/h
Gust
km/h
Spd
kts
Gust
kts
25/10:30am 11.2 7.3 6.9 75 2.1 SW 17 24 9 13 1014.1 1014.3 0.0
25/10:00am 10.4 6.8 6.7 78 1.8 WSW 15 24 8 13 1014.1 1014.3 0.0
25/09:30am 9.7 5.6 6.4 80 1.6 W 17 22 9 12 1014.1 1014.3 0.0
25/09:00am 9.4 5.9 7.2 86 1.1 W 15 19 8 10 1013.9 1014.1 6.2
25/08:30am 8.5 6.3 7.9 96 0.3 WNW 9 13 5 7 1013.9 1014.1 6.2
25/08:00am 7.8 5.2 7.7 99 0.0 W 11 17 6 9 1013.5 1013.7 6.2
25/07:30am 7.7 5.1 7.6 99 0.0 WSW 11 15 6 8 1013.2 1013.5 6.2
25/07:00am 7.8 7.3 7.7 99 0.0 CALM 0 0 0 0 1012.8 1013.1 6.2
25/06:30am 7.6 7.0 7.5 99 0.0 CALM 0 0 0 0 1012.7 1013.0 6.2
25/06:00am 7.3 6.7 7.2 99 0.0 CALM 0 0 0 0 1012.2 1012.5 6.2
25/05:30am 7.4 6.8 7.3 99 0.0 CALM 0 0 0 0 1011.9 1012.2 6.2
25/05:00am 7.6 7.0 7.5 99 0.0 CALM 0 0 0 0 1011.6 1011.8 6.2
25/04:30am 7.7 7.1 7.6 99 0.0 CALM 0 0 0 0 1011.4 1011.6 6.2
25/04:00am 7.6 6.6 7.5 99 0.0 SW 2 7 1 4 1011.2 1011.4 6.2
25/03:30am 7.5 5.8 7.4 99 0.0 SSW 6 7 3 4 1011.1 1011.3 6.2
25/03:00am 7.6 5.3 7.5 99 0.0 SW 9 11 5 6 1011.0 1011.2 6.2
25/02:30am 7.5 5.2 7.4 99 0.0 SW 9 13 5 7 1010.9 1011.1 6.2
25/02:00am 7.5 5.2 7.4 99 0.0 SSW 9 13 5 7 1011.1 1011.3 6.2
25/01:30am 7.5 5.2 7.4 99 0.0 SSW 9 13 5 7 1011.1 1011.3 6.2
25/01:00am 7.6 5.3 7.5 99 0.0 SSW 9 11 5 6 1011.1 1011.3 6.2
25/12:30am 7.6 4.9 7.5 99 0.0 S 11 17 6 9 1010.8 1011.0 6.2
25/12:00am 7.8 4.4 7.7 99 0.0 S 15 19 8 10 1011.0 1011.2 6.2
 
Date/Time
EST
Temp
°C
App
Temp
°C
Dew
Point
°C
Rel
Hum
%
Delta-T
°C
Wind Press
QNH
hPa
Press
MSL
hPa
Rain since
9am
mm
Dir  Spd
km/h
Gust
km/h
Spd
kts
Gust
kts
24/11:30pm 7.5 4.0 7.2 98 0.1 SSE 15 19 8 10 1010.8 1011.0 6.2
24/11:00pm 8.3 5.0 8.2 99 0.0 S 15 20 8 11 1010.7 1010.9 6.2
24/10:30pm 8.4 5.2 8.3 99 0.0 SSW 15 20 8 11 1010.7 1010.9 6.2
24/10:00pm 8.5 5.7 8.4 99 0.0 SW 13 19 7 10 1010.5 1010.7 6.2
24/09:30pm 8.5 5.3 8.4 99 0.0 SSW 15 19 8 10 1010.4 1010.6 6.2
24/09:00pm 8.8 5.3 8.7 99 0.0 SSW 17 20 9 11 1010.5 1010.7 5.8
24/08:30pm 8.9 5.0 8.8 99 0.0 SSW 19 24 10 13 1010.3 1010.5 5.6
24/08:00pm 8.8 5.7 8.7 99 0.0 SSW 15 20 8 11 1010.1 1010.3 5.4
24/07:30pm 8.6 5.0 8.5 99 0.0 S 17 24 9 13 1010.0 1010.2 5.4
24/07:00pm 8.8 4.9 8.5 98 0.1 SSW 19 26 10 14 1009.7 1009.9 5.2
24/06:30pm 9.4 6.8 9.3 99 0.1 SSW 13 15 7 8 1009.4 1009.6 5.0
24/06:00pm 9.8 7.7 9.7 99 0.1 S 11 15 6 8 1008.8 1009.0 5.0
24/05:30pm 9.9 7.4 9.8 99 0.1 SSW 13 15 7 8 1008.8 1009.0 4.8
24/05:00pm 10.1 8.4 10.0 99 0.1 SSW 9 13 5 7 1008.5 1008.8 4.8
24/04:30pm 10.2 8.2 10.1 99 0.1 S 11 13 6 7 1008.5 1008.8 4.8
24/04:00pm 10.2 8.2 10.1 99 0.1 S 11 13 6 7 1008.4 1008.7 4.6
24/03:30pm 9.8 7.2 9.5 98 0.2 S 13 17 7 9 1008.5 1008.8 4.2
24/03:00pm 9.9 8.2 9.8 99 0.1 SSW 9 13 5 7 1008.9 1009.1 3.6
24/02:30pm 10.3 8.3 10.1 99 0.1 SSW 11 17 6 9 1008.8 1009.0 3.0
24/02:00pm 10.3 10.0 10.1 99 0.1 SW 2 7 1 4 1009.1 1009.3 2.2
24/01:30pm 10.2 8.2 10.1 99 0.1 S 11 13 6 7 1009.3 1009.5 1.0
24/01:00pm 10.6 8.1 9.8 95 0.4 SSW 13 15 7 8 1009.6 1009.8 0.2
24/12:30pm 10.9 9.6 10.0 94 0.5 SSW 7 11 4 6 1010.0 1010.2 0.2
24/12:00pm 10.9 9.1 9.3 90 0.8 SSE 9 13 5 7 1010.3 1010.5 0.2
24/11:30am 10.7 8.7 8.8 88 0.9 SE 9 13 5 7 1010.7 1010.9 0.0
24/11:00am 10.6 8.2 8.7 88 0.9 SE 11 17 6 9 1010.9 1011.1 0.0
24/10:30am 10.3 8.0 8.9 91 0.7 SE 11 13 6 7 1011.2 1011.4 0.0
24/10:00am 9.5 7.1 8.7 95 0.4 SE 11 15 6 8 1011.4 1011.6 0.0
24/09:30am 8.9 6.1 8.5 97 0.2 SE 13 17 7 9 1011.5 1011.7 0.0
24/09:00am 8.2 6.4 8.1 99 0.0 SSE 7 9 4 5 1012.1 1012.4 0.0
24/08:30am 7.3 5.9 7.2 99 0.0 S 4 9 2 5 1012.3 1012.6 0.0
24/08:00am 6.7 5.2 6.6 99 0.0 SSE 4 9 2 5 1012.1 1012.4 0.0
24/07:30am 6.2 4.2 6.1 99 0.0 S 6 7 3 4 1012.0 1012.3 0.0
24/07:00am 5.9 3.6 5.8 99 0.0 SSW 7 9 4 5 1011.9 1012.2 0.0
24/06:30am 5.9 3.2 5.8 99 0.0 SW 9 11 5 6 1011.7 1012.0 0.0
24/06:00am 5.6 3.3 5.5 99 0.0 SW 7 9 4 5 1011.6 1011.8 0.0
24/05:30am 5.8 3.5 5.7 99 0.0 SE 7 11 4 6 1011.5 1011.7 0.0
24/05:00am 5.9 2.5 5.8 99 0.0 SE 13 17 7 9 1011.1 1011.3 0.0
24/04:30am 5.4 4.3 5.3 99 0.0 CALM 0 0 0 0 1011.6 1011.8 0.0
24/04:00am 5.8 4.8 5.7 99 0.0 CALM 0 0 0 0 1012.1 1012.4 0.0
24/03:30am 6.3 4.7 6.3 100 0.0 ESE 4 7 2 4 1012.0 1012.3 0.0
24/03:00am 5.6 3.4 5.5 99 0.0 SE 6 9 3 5 1012.2 1012.5 0.0
24/02:30am 4.5 2.1 4.4 99 0.0 S 6 7 3 4 1012.6 1012.9 0.0
24/02:00am 3.7 1.5 3.6 99 0.0 SE 4 9 2 5 1012.9 1013.2 0.0
24/01:30am 3.5 2.1 3.4 99 0.0 CALM 0 0 0 0 1013.4 1013.6 0.0
24/01:00am 3.7 0.6 3.6 99 0.0 SE 9 11 5 6 1013.2 1013.5 0.0
24/12:30am 3.7 2.3 3.6 99 0.0 CALM 0 0 0 0 1013.9 1014.1 0.0
24/12:00am 4.1 2.8 4.0 99 0.0 CALM 0 0 0 0 1014.3 1014.5 0.0
 
Date/Time
EST
Temp
°C
App
Temp
°C
Dew
Point
°C
Rel
Hum
%
Delta-T
°C
Wind Press
QNH
hPa
Press
MSL
hPa
Rain since
9am
mm
Dir  Spd
km/h
Gust
km/h
Spd
kts
Gust
kts
23/11:30pm 4.9 3.7 4.8 99 0.0 CALM 0 0 0 0 1014.4 1014.6 0.0
23/11:00pm 5.0 2.5 4.9 99 0.0 S 7 9 4 5 1014.8 1015.0 0.0
23/10:30pm 5.8 3.1 5.7 99 0.0 S 9 11 5 6 1014.8 1015.0 0.0
23/10:00pm 6.3 3.7 6.2 99 0.0 S 9 11 5 6 1015.2 1015.4 0.0
23/09:30pm 6.2 3.2 6.1 99 0.0 S 11 13 6 7 1015.5 1015.8 0.0
23/09:00pm 6.9 4.0 6.6 98 0.1 S 11 13 6 7 1015.1 1015.3 0.0
23/08:30pm 6.9 3.7 6.8 99 0.0 S 13 17 7 9 1014.8 1015.0 0.0
23/08:00pm 6.9 4.8 6.8 99 0.0 S 7 9 4 5 1015.4 1015.7 0.0
23/07:30pm 7.1 4.6 6.7 97 0.2 S 9 11 5 6 1015.2 1015.4 0.0
23/07:00pm 7.8 5.4 7.2 96 0.3 SSE 9 13 5 7 1015.0 1015.2 0.0
23/06:30pm 8.4 5.7 7.5 94 0.4 S 11 13 6 7 1014.7 1014.9 0.0
23/06:00pm 9.8 7.8 8.6 92 0.6 S 9 11 5 6 1015.0 1015.2 0.0
23/05:30pm 10.4 8.4 8.5 88 0.9 SSW 9 11 5 6 1014.9 1015.1 0.0
23/05:00pm 11.2 9.6 8.6 84 1.3 S 7 9 4 5 1014.9 1015.1 0.0
23/04:30pm 11.2 9.1 8.4 83 1.4 SSW 9 13 5 7 1015.0 1015.2 0.0
23/04:00pm 11.3 8.9 8.5 83 1.4 SSW 11 17 6 9 1015.2 1015.4 0.0
23/03:30pm 11.8 9.8 7.3 74 2.2 SSW 7 9 4 5 1014.5 1014.7 0.0
23/03:00pm 11.6 9.8 7.9 78 1.8 SSW 7 13 4 7 1014.5 1014.7 0.0
23/02:30pm 11.8 9.9 6.9 72 2.4 SE 6 11 3 6 1014.8 1015.0 0.0
23/02:00pm 11.8 9.5 7.3 74 2.2 SSE 9 15 5 8 1014.2 1014.4 0.0
23/01:30pm 11.2 8.1 7.3 77 1.9 SSE 13 19 7 10 1014.1 1014.3 0.0
23/01:00pm 11.0 8.2 6.9 76 2.0 S 11 19 6 10 1014.6 1014.8 0.0
23/12:30pm 10.7 8.0 7.2 79 1.7 S 11 13 6 7 1015.2 1015.4 0.0
23/12:00pm 10.4 7.7 7.5 82 1.4 S 11 15 6 8 1016.2 1016.5 0.0
23/11:30am 10.1 7.9 7.7 85 1.2 SW 9 13 5 7 1016.2 1016.5 0.0
23/11:00am 9.7 7.4 7.6 87 1.0 SSW 9 15 5 8 1016.8 1017.1 0.0
23/10:30am 9.3 6.3 7.6 89 0.8 SW 13 15 7 8 1016.6 1016.9 0.0
23/10:00am 9.2 7.0 7.8 91 0.7 WSW 9 15 5 8 1016.8 1017.1 0.0
23/09:30am 8.5 6.8 8.4 99 0.0 WSW 7 11 4 6 1016.6 1016.9 0.0
23/09:00am 7.6 5.0 7.6 100 0.0 SSW 11 15 6 8 1016.4 1016.7 3.4
23/08:30am 6.9 4.9 6.9 100 0.0 WNW 7 9 4 5 1016.4 1016.7 3.4
23/08:00am 6.7 4.6 6.7 100 0.0 NNW 7 9 4 5 1016.2 1016.5 3.4
23/07:40am 6.3 5.0 6.2 99 0.0 ESE 2 9 1 5 1015.1 1015.3 3.4
23/07:30am 5.6 3.4 5.5 99 0.0 SE 6 13 3 7 1013.0 1013.3 3.4
23/07:00am 4.3 3.0 4.2 99 0.0 CALM 0 0 0 0 1014.3 1014.5 3.4
23/06:30am 5.0 3.9 4.9 99 0.0 CALM 0 0 0 0 1014.6 1014.8 3.4
23/06:00am 5.7 4.7 5.6 99 0.0 CALM 0 0 0 0 1014.4 1014.6 3.4
23/05:30am 6.2 5.3 6.1 99 0.0 CALM 0 0 0 0 1014.1 1014.3 3.4
23/05:00am 7.0 6.3 6.9 99 0.0 CALM 0 0 0 0 1013.9 1014.1 3.4
23/04:30am 7.1 5.3 7.0 99 0.0 SSW 6 7 3 4 1013.8 1014.0 3.4
23/04:00am 7.3 4.6 7.2 99 0.0 SE 11 13 6 7 1013.8 1014.0 3.4
23/03:30am 7.7 5.1 7.6 99 0.0 S 11 17 6 9 1013.9 1014.1 3.4
23/03:00am 7.4 5.4 7.3 99 0.0 SSW 7 9 4 5 1013.9 1014.1 3.4
23/02:30am 7.7 5.4 7.6 99 0.0 SSW 9 13 5 7 1014.1 1014.3 3.4
23/02:00am 7.6 5.3 7.5 99 0.0 SSW 9 13 5 7 1014.0 1014.2 3.4
23/01:30am 7.6 5.3 7.5 99 0.0 SSW 9 13 5 7 1014.1 1014.3 3.4
23/01:00am 7.7 5.8 7.6 99 0.0 SSW 7 9 4 5 1014.3 1014.5 3.4
23/12:30am 7.8 5.6 7.7 99 0.0 WSW 9 13 5 7 1014.3 1014.5 3.2
23/12:00am 7.8 6.5 7.7 99 0.0 WSW 4 7 2 4 1014.3 1014.5 2.8
 
Date/Time
EST
Temp
°C
App
Temp
°C
Dew
Point
°C
Rel
Hum
%
Delta-T
°C
Wind Press
QNH
hPa
Press
MSL
hPa
Rain since
9am
mm
Dir  Spd
km/h
Gust
km/h
Spd
kts
Gust
kts
22/11:30pm 7.7 6.0 7.6 99 0.0 WSW 6 7 3 4 1014.2 1014.4 2.6
22/11:00pm 7.7 5.8 7.6 99 0.0 SW 7 9 4 5 1014.1 1014.3 2.6
22/10:30pm 7.7 5.4 7.6 99 0.0 WSW 9 11 5 6 1014.0 1014.2 2.6
22/10:00pm 7.7 5.4 7.6 99 0.0 SW 9 11 5 6 1013.7 1013.9 2.4
22/09:30pm 7.7 5.8 7.6 99 0.0 S 7 9 4 5 1013.1 1013.4 2.4
22/09:00pm 7.8 7.3 7.7 99 0.0 CALM 0 0 0 0 1013.4 1013.6 2.2
22/08:30pm 7.8 7.3 7.7 99 0.0 CALM 0 0 0 0 1013.4 1013.6 2.2
22/08:00pm 8.1 7.6 8.0 99 0.0 CALM 0 2 0 1 1013.1 1013.4 2.2
22/07:30pm 8.3 7.9 8.2 99 0.0 CALM 0 0 0 0 1013.2 1013.5 2.0
22/07:00pm 8.4 8.0 8.3 99 0.0 CALM 0 0 0 0 1013.2 1013.5 2.0
22/06:30pm 8.7 8.3 8.3 97 0.2 CALM 0 0 0 0 1013.2 1013.5 1.6
22/06:00pm 8.8 8.3 8.0 95 0.4 CALM 0 0 0 0 1013.1 1013.4 1.4
22/05:30pm 8.9 7.3 7.8 93 0.5 NE 6 7 3 4 1012.9 1013.2 1.2
22/05:00pm 9.1 6.5 7.7 91 0.7 NE 11 15 6 8 1012.5 1012.8 1.2
22/04:30pm 9.3 6.7 7.6 89 0.8 NNE 11 15 6 8 1012.7 1013.0 1.2
22/04:00pm 9.3 6.4 8.1 92 0.6 NNE 13 17 7 9 1012.9 1013.2 1.0
22/03:30pm 10.1 8.2 7.5 84 1.3 N 7 9 4 5 1013.0 1013.3 0.2
22/03:00pm 10.4 8.1 7.6 83 1.4 NNE 9 13 5 7 1012.9 1013.2 0.0
22/02:30pm 11.0 6.9 6.2 72 2.3 NE 17 24 9 13 1012.8 1013.1 0.0
22/02:00pm 11.8 8.2 5.0 63 3.2 ENE 13 17 7 9 1012.8 1013.1 0.0
22/01:30pm 11.9 9.2 5.5 65 3.0 ENE 9 13 5 7 1012.9 1013.2 0.0
22/01:00pm 12.0 9.4 6.1 67 2.8 NE 9 15 5 8 1013.6 1013.8 0.0
22/12:30pm 11.2 6.8 6.5 73 2.2 NNE 19 24 10 13 1014.4 1014.6 0.0
22/12:00pm 11.3 7.4 8.5 83 1.4 N 19 28 10 15 1014.9 1015.1 0.0
22/11:30am 11.1 8.0 8.8 86 1.2 NNE 15 20 8 11 1015.3 1015.6 0.0
22/11:00am 10.5 8.3 9.4 93 0.6 N 11 13 6 7 1015.7 1016.0 0.0

Other Formats:

Comma delimited format used in spreadsheet applications
http://www.bom.gov.au/fwo/IDN60801/IDN60801.94715.axf

JavaScript Object Notation format (JSON) in row-major order
http://www.bom.gov.au/fwo/IDN60801/IDN60801.94715.json